Joint Base Andrews

Airport
ICAO code: 
KADW
Summary
ICAO Region: 
NAM
Territory: 
Location: 
Prince George's County, Maryland,
Coordinates: 
Aerial View: 
38° 47' 47.473" N, 76° 53' 1.054" W
Airport LOS: 
Parallel Runway Operation
Airport WX: 
Cumulonimbus
Metar
Observation
KADW 021256Z AUTO 22008KT 10SM CLR 08/03 A2987 RMK AO2 SLP123 T00780029 $
Station
Camp Springs / Andrews Air Force Base
Date/Time
2021-12-02 12:56:00
Wind direction
220°
Wind speed
08 kts
Lowest cloud amount
n/a
Temperature
7.8°C
Dew point
2.9°C
Humidity
71%
Weather condition
n/a

Description

Joint Base Andrews is a United States military facility located in Prince George's County, Maryland, 10 km southeast of Washington, DC. Joint Base Andrews was established in 2009 as a merger of Andrews Air Force Base and Naval Air Facility Washington.

Climatology

Humid “subtropical” climate (Köppen climate classification Cfa) - characterized by hot, humid summers and cool winters. Significant amounts of precipitation occur in all seasons in most areas. Winter rainfall (and sometimes snowfall) is associated with large storms that the westerlies steer from west to east. Most summer rainfall occurs during thunderstorms and occasional tropical storms (hurricanes).

Runways

Designator Length Width Surface Rops
01L/19R 2835 61 CON Yes/Yes
01R/19L 2973 46 PEM Yes/Yes
Airport map: 
Aerial View: 

SKYbrary Partners:

Safety knowledge contributed by: